Time;durP1;ratioP1;P1;durP2;ratioP2;P2;SDS_P1;SDS_P2;PMS_P1;PMS_P2;Temp;Humidity;BMP_temperature;BMP_pressure;BME280_temperature;BME280_humidity;BME280_pressure;Samples;Min_cycle;Max_cycle;Signal;HPM_P1;HPM_P2
2023/01/03 00:01:24;;;;;;;4.93;2.80;;;9.80;99.90;;;;;;5078287;28;20442;-72
2023/01/03 00:03:53;;;;;;;8.20;3.60;;;9.80;99.90;;;;;;5078015;28;20476;-69
2023/01/03 00:06:22;;;;;;;3.97;3.07;;;9.80;99.90;;;;;;5077831;28;20854;-70
2023/01/03 00:08:49;;;;;;;5.40;3.47;;;9.80;99.90;;;;;;5077924;28;20462;-70
2023/01/03 00:11:18;;;;;;;7.30;3.40;;;9.80;99.90;;;;;;5077524;28;20454;-70
2023/01/03 00:13:46;;;;;;;4.13;3.37;;;9.80;99.90;;;;;;5078920;28;20569;-70
2023/01/03 00:16:16;;;;;;;6.57;3.67;;;9.80;99.90;;;;;;5079505;28;20469;-69
2023/01/03 00:18:43;;;;;;;6.90;3.13;;;9.80;99.90;;;;;;5080342;28;20537;-70
2023/01/03 00:21:10;;;;;;;5.77;3.80;;;9.80;99.90;;;;;;5079634;28;20809;-70
2023/01/03 00:23:37;;;;;;;5.27;3.07;;;9.90;99.90;;;;;;5083114;28;20553;-69
2023/01/03 00:26:09;;;;;;;4.73;3.10;;;9.90;99.90;;;;;;5083168;28;20537;-69
2023/01/03 00:28:36;;;;;;;7.77;3.77;;;9.90;99.90;;;;;;5083425;28;20438;-69
2023/01/03 00:31:07;;;;;;;4.53;3.33;;;9.90;99.90;;;;;;5082713;28;20852;-69
2023/01/03 00:33:34;;;;;;;4.37;2.63;;;9.90;99.90;;;;;;5082236;28;20482;-70
2023/01/03 00:36:02;;;;;;;3.53;3.10;;;9.90;99.90;;;;;;5083337;28;20532;-69
2023/01/03 00:38:29;;;;;;;7.30;3.40;;;9.90;99.90;;;;;;5083096;28;20489;-70
2023/01/03 00:41:02;;;;;;;4.70;3.33;;;9.90;99.90;;;;;;5082580;28;20521;-70
2023/01/03 00:43:29;;;;;;;4.70;2.70;;;9.90;99.90;;;;;;5082592;28;20486;-70
2023/01/03 00:45:56;;;;;;;4.60;4.20;;;9.90;99.90;;;;;;5083064;28;20993;-70
2023/01/03 00:48:25;;;;;;;8.50;4.77;;;9.90;99.90;;;;;;5081784;28;20454;-70
2023/01/03 00:50:51;;;;;;;9.57;3.70;;;9.90;99.90;;;;;;5082814;28;20549;-70
2023/01/03 00:53:18;;;;;;;2.80;2.50;;;9.90;99.90;;;;;;5083344;28;20474;-69
2023/01/03 00:55:45;;;;;;;4.93;3.73;;;9.90;99.90;;;;;;5082735;28;20871;-71
2023/01/03 00:58:12;;;;;;;5.93;4.10;;;9.90;99.90;;;;;;5082332;28;20492;-70
2023/01/03 01:00:39;;;;;;;5.10;2.77;;;9.90;99.90;;;;;;5082170;28;20469;-70
2023/01/03 01:03:06;;;;;;;5.40;3.30;;;9.90;99.90;;;;;;5081747;28;20454;-69
2023/01/03 01:05:34;;;;;;;7.50;2.90;;;9.90;99.90;;;;;;5082366;28;20458;-69
2023/01/03 01:08:01;;;;;;;4.40;2.60;;;9.90;99.90;;;;;;5082677;28;20557;-70
2023/01/03 01:10:28;;;;;;;4.67;2.53;;;9.80;99.90;;;;;;5082205;28;20469;-70
2023/01/03 01:12:55;;;;;;;4.00;2.40;;;9.80;99.90;;;;;;5082168;28;20553;-70
2023/01/03 01:15:22;;;;;;;6.10;2.73;;;9.70;99.90;;;;;;5081983;28;20976;-70
2023/01/03 01:17:49;;;;;;;5.60;2.90;;;9.60;99.90;;;;;;5081338;28;20468;-69
2023/01/03 01:20:16;;;;;;;4.33;2.40;;;9.60;99.90;;;;;;5081327;28;20617;-70
2023/01/03 01:22:44;;;;;;;3.73;2.20;;;9.60;99.90;;;;;;5079197;28;20482;-68
2023/01/03 01:25:11;;;;;;;5.20;2.40;;;9.60;99.90;;;;;;5079241;28;20940;-69
2023/01/03 01:27:38;;;;;;;2.67;2.10;;;9.50;99.90;;;;;;5080952;28;20455;-69
2023/01/03 01:30:05;;;;;;;2.10;1.90;;;9.50;99.90;;;;;;5081347;28;20458;-70
2023/01/03 01:32:32;;;;;;;2.47;2.10;;;9.50;99.90;;;;;;5081229;28;20468;-70
2023/01/03 01:34:59;;;;;;;3.67;1.87;;;9.40;99.90;;;;;;5081239;28;20513;-70
2023/01/03 01:37:26;;;;;;;2.83;2.07;;;9.40;99.90;;;;;;5082258;28;20862;-70
2023/01/03 01:39:54;;;;;;;6.87;2.37;;;9.40;99.90;;;;;;5082030;28;20493;-70
2023/01/03 01:45:12;;;;;;;2.73;1.97;;;9.30;99.90;;;;;;5080470;28;20488;-69
2023/01/03 01:47:42;;;;;;;3.10;2.40;;;9.30;99.90;;;;;;5080434;28;20453;-69
2023/01/03 01:50:18;;;;;;;2.70;1.80;;;9.30;99.90;;;;;;5080356;28;20460;-70
2023/01/03 01:52:50;;;;;;;7.07;2.03;;;9.30;99.90;;;;;;5080231;28;20986;-70
2023/01/03 01:55:22;;;;;;;3.13;1.57;;;9.20;99.90;;;;;;5080212;28;20477;-69
2023/01/03 01:57:49;;;;;;;4.37;2.33;;;9.20;99.90;;;;;;5079736;28;20449;-69
2023/01/03 02:00:16;;;;;;;2.80;1.83;;;9.10;99.90;;;;;;5079782;28;20500;-70
2023/01/03 02:02:46;;;;;;;2.40;1.73;;;9.00;99.90;;;;;;5079394;28;20918;-70
2023/01/03 02:05:14;;;;;;;2.70;1.60;;;9.00;99.90;;;;;;5081135;28;20533;-70
2023/01/03 02:07:40;;;;;;;2.23;1.83;;;8.90;99.90;;;;;;5080654;28;20541;-68
2023/01/03 02:10:09;;;;;;;5.83;1.77;;;8.90;99.90;;;;;;5081101;28;20546;-70
2023/01/03 02:15:46;;;;;;;6.60;1.73;;;8.80;99.90;;;;;;5080222;28;20466;-70
2023/01/03 02:18:27;;;;;;;2.10;1.67;;;8.70;99.90;;;;;;5080375;28;20461;-69
2023/01/03 02:21:33;;;;;;;5.57;1.97;;;8.70;99.90;;;;;;5080454;28;20506;-69
2023/01/03 02:24:45;;;;;;;4.60;1.70;;;8.60;99.90;;;;;;5018766;28;20459;-69
2023/01/03 02:27:34;;;;;;;3.23;1.87;;;8.50;99.90;;;;;;5064747;28;20446;-69
2023/01/03 02:30:34;;;;;;;5.80;2.00;;;8.50;99.90;;;;;;5080787;28;20771;-69
2023/01/03 02:33:10;;;;;;;4.73;2.27;;;8.50;99.90;;;;;;5019443;28;20463;-69
2023/01/03 02:35:45;;;;;;;6.27;1.83;;;8.50;99.90;;;;;;5070280;28;20659;-70
2023/01/03 02:38:20;;;;;;;2.83;1.93;;;8.40;99.90;;;;;;5080282;28;20473;-70
2023/01/03 02:40:52;;;;;;;6.27;2.10;;;8.40;99.90;;;;;;5079516;28;20464;-71
2023/01/03 02:43:26;;;;;;;2.10;1.50;;;8.40;99.90;;;;;;5078671;28;20453;-69
2023/01/03 02:46:03;;;;;;;3.63;1.77;;;8.30;99.90;;;;;;5078928;28;20478;-69
2023/01/03 02:48:39;;;;;;;3.27;1.67;;;8.30;99.90;;;;;;5079566;28;20506;-70
2023/01/03 02:51:10;;;;;;;1.80;1.60;;;8.20;99.90;;;;;;5078382;28;20894;-70
2023/01/03 02:53:43;;;;;;;2.97;1.80;;;8.20;99.90;;;;;;5078820;28;20441;-69
2023/01/03 02:56:12;;;;;;;6.40;1.97;;;8.20;99.90;;;;;;5078744;28;20767;-69
2023/01/03 02:58:43;;;;;;;3.77;1.70;;;8.10;99.90;;;;;;5078250;28;20455;-70
2023/01/03 03:01:13;;;;;;;3.00;1.63;;;8.10;99.90;;;;;;5078983;28;20537;-68
2023/01/03 03:03:40;;;;;;;3.33;1.73;;;8.10;99.90;;;;;;5079571;28;20552;-70
2023/01/03 03:06:11;;;;;;;2.90;2.20;;;8.10;99.90;;;;;;5079277;28;20541;-69
2023/01/03 03:08:38;;;;;;;4.00;2.10;;;8.00;99.90;;;;;;5079633;28;20540;-70
2023/01/03 03:13:54;;;;;;;2.83;2.17;;;8.00;99.90;;;;;;5079061;28;20437;-70
2023/01/03 03:24:59;;;;;;;4.10;2.20;;;7.70;99.90;;;;;;5078896;28;20533;-69
2023/01/03 03:30:16;;;;;;;4.37;1.90;;;7.60;99.90;;;;;;5080513;28;20490;-69
2023/01/03 03:32:48;;;;;;;3.60;2.00;;;7.60;99.90;;;;;;5079149;28;20457;-69
2023/01/03 03:35:19;;;;;;;7.17;2.10;;;7.50;99.90;;;;;;5078968;28;20489;-70
2023/01/03 03:37:47;;;;;;;7.67;2.10;;;7.50;99.90;;;;;;5078527;28;20525;-69
2023/01/03 03:46:01;;;;;;;4.73;2.17;;;7.40;99.90;;;;;;5077561;28;20476;-68
2023/01/03 03:49:36;;;;;;;5.80;2.20;;;7.40;99.90;;;;;;5078018;28;20519;-69
2023/01/03 03:51:25;;;;;;;4.53;2.30;;;7.40;99.90;;;;;;5076809;28;20826;-70
2023/01/03 03:53:53;;;;;;;5.57;1.97;;;7.30;99.90;;;;;;5076809;28;20468;-69
2023/01/03 03:56:24;;;;;;;3.97;2.00;;;7.30;99.90;;;;;;5079052;28;20468;-69
2023/01/03 03:58:56;;;;;;;9.50;3.07;;;7.30;99.90;;;;;;5081899;28;20470;-69
2023/01/03 04:01:26;;;;;;;5.30;2.40;;;7.30;99.90;;;;;;5081819;28;20781;-68
2023/01/03 04:03:57;;;;;;;3.10;2.00;;;7.30;99.90;;;;;;5082161;28;20928;-69
2023/01/03 04:06:30;;;;;;;4.17;2.40;;;7.20;99.90;;;;;;5081440;28;20779;-68
2023/01/03 04:08:58;;;;;;;5.60;2.87;;;7.20;99.90;;;;;;5082120;28;20525;-70
2023/01/03 04:11:25;;;;;;;6.27;2.53;;;7.20;99.90;;;;;;5082254;28;20517;-69
2023/01/03 04:13:51;;;;;;;3.83;2.13;;;7.20;99.90;;;;;;5081694;28;20788;-69
2023/01/03 04:16:19;;;;;;;7.17;2.50;;;7.20;99.90;;;;;;5082511;28;20454;-69
2023/01/03 04:18:45;;;;;;;5.20;2.23;;;7.20;99.90;;;;;;5082055;28;20849;-70
2023/01/03 04:21:14;;;;;;;2.50;2.03;;;7.10;99.90;;;;;;5081631;28;20460;-69
2023/01/03 04:23:40;;;;;;;3.50;2.77;;;7.10;99.90;;;;;;5081447;28;20541;-70
2023/01/03 04:26:07;;;;;;;5.17;2.60;;;7.10;99.90;;;;;;5081634;28;20831;-69
2023/01/03 04:28:34;;;;;;;3.83;2.50;;;7.10;99.90;;;;;;5082060;28;20454;-69
2023/01/03 04:31:01;;;;;;;5.83;2.30;;;7.10;99.90;;;;;;5081628;28;20541;-69
2023/01/03 04:33:28;;;;;;;5.83;2.53;;;7.00;99.90;;;;;;5081700;28;20759;-69
2023/01/03 04:35:55;;;;;;;7.70;3.60;;;7.00;99.90;;;;;;5082023;28;20885;-70
2023/01/03 04:38:23;;;;;;;2.90;2.60;;;7.00;99.90;;;;;;5081528;28;20458;-69
2023/01/03 04:40:50;;;;;;;2.97;2.67;;;7.00;99.90;;;;;;5081549;28;20514;-70
2023/01/03 04:46:01;;;;;;;4.73;2.70;;;6.90;99.90;;;;;;5081843;28;20420;-69
2023/01/03 04:48:28;;;;;;;13.73;2.87;;;6.90;99.90;;;;;;5080673;28;20902;-71
2023/01/03 04:50:56;;;;;;;4.07;2.90;;;6.90;99.90;;;;;;5080482;28;20482;-70
2023/01/03 04:53:26;;;;;;;5.00;2.63;;;6.90;99.90;;;;;;5080812;28;20514;-70
2023/01/03 04:55:55;;;;;;;5.47;3.07;;;6.80;99.90;;;;;;5082124;28;20593;-69
2023/01/03 04:58:22;;;;;;;5.63;2.50;;;6.80;99.90;;;;;;5080925;28;20457;-69
2023/01/03 05:00:49;;;;;;;7.87;2.90;;;6.80;99.90;;;;;;5081015;28;20477;-69
2023/01/03 05:03:16;;;;;;;5.13;2.80;;;6.80;99.90;;;;;;5082822;28;20462;-69
2023/01/03 05:05:43;;;;;;;4.60;2.67;;;6.70;99.90;;;;;;5082162;28;20450;-68
2023/01/03 05:08:12;;;;;;;6.27;2.77;;;6.70;99.90;;;;;;5080201;28;20490;-69
2023/01/03 05:10:41;;;;;;;4.80;2.60;;;6.70;99.90;;;;;;5080438;28;20851;-70
2023/01/03 05:13:08;;;;;;;8.23;2.90;;;6.70;99.90;;;;;;5080476;28;20546;-70
2023/01/03 05:15:37;;;;;;;5.40;2.50;;;6.70;99.90;;;;;;5080396;28;20484;-69
2023/01/03 05:18:05;;;;;;;5.20;2.73;;;6.70;99.90;;;;;;5081259;28;20462;-69
2023/01/03 05:26:08;;;;;;;5.73;3.17;;;6.70;99.90;;;;;;5080660;28;20464;-69
2023/01/03 05:28:35;;;;;;;6.07;3.17;;;6.70;99.90;;;;;;5080850;28;20521;-71
2023/01/03 05:31:02;;;;;;;5.10;3.17;;;6.70;99.90;;;;;;5080918;28;20502;-69
2023/01/03 05:33:29;;;;;;;3.40;2.97;;;6.70;99.90;;;;;;5080991;28;20458;-70
2023/01/03 05:35:57;;;;;;;6.30;2.90;;;6.70;99.90;;;;;;5080176;28;20492;-70
2023/01/03 05:38:23;;;;;;;6.33;3.70;;;6.70;99.90;;;;;;5080799;28;20484;-69
2023/01/03 05:40:50;;;;;;;3.80;2.67;;;6.70;99.90;;;;;;5080366;28;20579;-69
2023/01/03 05:43:19;;;;;;;5.47;3.17;;;6.70;99.90;;;;;;5080263;28;20522;-69
2023/01/03 05:45:50;;;;;;;9.50;3.10;;;6.60;99.90;;;;;;5080626;28;20454;-70
2023/01/03 05:48:17;;;;;;;5.50;3.10;;;6.60;99.90;;;;;;5080866;28;20878;-70
2023/01/03 05:50:44;;;;;;;4.90;3.30;;;6.60;99.90;;;;;;5081111;28;20455;-70
2023/01/03 05:53:11;;;;;;;4.00;3.27;;;6.60;99.90;;;;;;5081464;28;20538;-70
2023/01/03 05:55:39;;;;;;;4.27;3.10;;;6.60;99.90;;;;;;5080471;28;20589;-70
2023/01/03 05:58:07;;;;;;;4.97;3.00;;;6.50;99.90;;;;;;5080018;28;20469;-70
2023/01/03 06:00:35;;;;;;;3.57;2.67;;;6.50;99.90;;;;;;5080664;28;20481;-70
2023/01/03 06:03:02;;;;;;;3.97;3.00;;;6.40;99.90;;;;;;5080296;28;20454;-70
2023/01/03 06:05:29;;;;;;;5.03;3.20;;;6.40;99.90;;;;;;5080494;28;20450;-69
2023/01/03 06:07:55;;;;;;;7.23;3.60;;;6.40;99.90;;;;;;5079747;28;20970;-70
2023/01/03 06:10:22;;;;;;;4.20;2.77;;;6.40;99.90;;;;;;5079831;28;20531;-70
2023/01/03 06:12:49;;;;;;;8.97;2.80;;;6.40;99.90;;;;;;5079298;28;20531;-70
2023/01/03 06:15:16;;;;;;;5.80;3.10;;;6.30;99.90;;;;;;5079946;28;20577;-70
2023/01/03 06:17:57;;;;;;;8.80;3.27;;;6.30;99.90;;;;;;5078750;28;20604;-70
2023/01/03 06:20:25;;;;;;;3.97;2.53;;;6.30;99.90;;;;;;5078753;28;20447;-69
2023/01/03 06:22:53;;;;;;;2.87;2.57;;;6.30;99.90;;;;;;5078464;28;20625;-69
2023/01/03 06:25:20;;;;;;;3.20;2.43;;;6.30;99.90;;;;;;5079353;28;20792;-69
2023/01/03 06:27:46;;;;;;;4.77;3.00;;;6.20;99.90;;;;;;5078794;28;20454;-70
2023/01/03 06:30:14;;;;;;;11.27;2.63;;;6.30;99.90;;;;;;5080793;28;20454;-69
2023/01/03 06:32:42;;;;;;;7.00;2.93;;;6.30;99.90;;;;;;5080302;28;20791;-69
2023/01/03 06:35:10;;;;;;;5.43;3.00;;;6.30;99.90;;;;;;5079627;28;20555;-69
2023/01/03 06:37:37;;;;;;;5.30;2.87;;;6.20;99.90;;;;;;5078435;28;20863;-69
2023/01/03 06:40:05;;;;;;;5.93;3.47;;;6.20;99.90;;;;;;5078486;28;20515;-70
2023/01/03 06:42:45;;;;;;;4.93;2.70;;;6.20;99.90;;;;;;5078529;28;20529;-69
2023/01/03 06:53:42;;;;;;;5.50;3.23;;;6.20;99.90;;;;;;5074728;28;20450;-70
2023/01/03 06:56:10;;;;;;;5.10;3.40;;;6.20;99.90;;;;;;5078566;28;20653;-68
2023/01/03 06:58:37;;;;;;;11.03;3.90;;;6.30;99.90;;;;;;5079026;28;20523;-70
2023/01/03 07:01:06;;;;;;;4.93;3.80;;;6.30;99.90;;;;;;5078814;28;20454;-69
2023/01/03 07:03:33;;;;;;;7.50;3.80;;;6.30;99.90;;;;;;5078863;28;20486;-69
2023/01/03 07:06:01;;;;;;;6.93;3.33;;;6.20;99.90;;;;;;5078651;28;20451;-69
2023/01/03 07:08:28;;;;;;;8.50;4.27;;;6.30;99.90;;;;;;5078439;28;20462;-71
2023/01/03 07:10:55;;;;;;;5.10;3.70;;;6.20;99.90;;;;;;5079034;28;20501;-68
2023/01/03 07:16:07;;;;;;;6.10;4.73;;;6.20;99.90;;;;;;5078411;28;20497;-70
2023/01/03 07:18:34;;;;;;;7.80;4.60;;;6.20;99.90;;;;;;5078870;28;20540;-70
2023/01/03 07:21:05;;;;;;;7.10;4.60;;;6.20;99.90;;;;;;5078893;28;20493;-71
2023/01/03 07:23:32;;;;;;;12.17;4.77;;;6.10;99.90;;;;;;5078209;28;20493;-69
2023/01/03 07:25:59;;;;;;;9.77;4.50;;;6.10;99.90;;;;;;5077985;28;20454;-70
2023/01/03 07:28:26;;;;;;;5.80;4.90;;;6.10;99.90;;;;;;5078040;28;20537;-69
2023/01/03 07:30:53;;;;;;;8.47;4.27;;;6.10;99.90;;;;;;5078846;28;20481;-69
2023/01/03 07:33:19;;;;;;;12.97;5.20;;;6.20;99.90;;;;;;5078598;28;20518;-69
2023/01/03 07:35:46;;;;;;;5.87;4.70;;;6.10;99.90;;;;;;5079789;28;20478;-70
2023/01/03 07:38:14;;;;;;;11.00;6.60;;;6.10;99.90;;;;;;5079387;28;20929;-70
2023/01/03 07:40:41;;;;;;;6.43;4.43;;;6.10;99.90;;;;;;5078877;28;20461;-70
2023/01/03 07:45:54;;;;;;;14.63;4.30;;;6.00;99.90;;;;;;5079418;28;20425;-70
2023/01/03 07:48:21;;;;;;;8.60;4.80;;;6.10;99.90;;;;;;5079753;28;20460;-70
2023/01/03 07:50:48;;;;;;;9.73;4.63;;;6.00;99.90;;;;;;5078818;28;20509;-69
2023/01/03 07:53:16;;;;;;;6.97;5.67;;;6.00;99.90;;;;;;5079578;28;20453;-69
2023/01/03 07:55:44;;;;;;;10.20;5.27;;;6.00;99.90;;;;;;5079296;28;20539;-69
2023/01/03 07:58:12;;;;;;;5.00;4.53;;;6.00;99.90;;;;;;5078706;28;20792;-69
2023/01/03 08:00:39;;;;;;;10.20;4.63;;;6.00;99.90;;;;;;5079505;28;20472;-70
2023/01/03 08:03:06;;;;;;;8.60;5.33;;;6.00;99.90;;;;;;5079417;28;20454;-70
2023/01/03 08:05:34;;;;;;;6.60;5.00;;;6.00;99.90;;;;;;5079890;28;20526;-68
2023/01/03 08:08:02;;;;;;;7.60;4.60;;;5.90;99.90;;;;;;5079660;28;20450;-69
2023/01/03 08:13:18;;;;;;;4.20;3.80;;;5.90;99.90;;;;;;5079676;28;20488;-70
2023/01/03 08:15:45;;;;;;;8.70;4.63;;;5.90;99.90;;;;;;5079810;28;20488;-70
2023/01/03 08:18:13;;;;;;;8.93;4.33;;;6.00;99.90;;;;;;5079051;28;20466;-70
2023/01/03 08:20:39;;;;;;;8.07;4.77;;;6.00;99.90;;;;;;5077605;28;20458;-70
2023/01/03 08:23:06;;;;;;;11.33;5.20;;;6.00;99.90;;;;;;5078028;28;20569;-69
2023/01/03 08:25:35;;;;;;;9.50;6.40;;;6.00;99.90;;;;;;5077666;28;20505;-69
2023/01/03 08:28:02;;;;;;;5.30;4.40;;;6.00;99.90;;;;;;5077563;28;20549;-69
2023/01/03 08:30:30;;;;;;;7.23;3.90;;;6.10;99.90;;;;;;5077310;28;20465;-69
2023/01/03 08:33:00;;;;;;;6.70;4.10;;;6.10;99.90;;;;;;5079023;28;20450;-70
2023/01/03 08:35:32;;;;;;;7.83;4.40;;;6.10;99.90;;;;;;5079136;28;20467;-70
2023/01/03 08:38:01;;;;;;;8.93;4.90;;;6.20;99.90;;;;;;5079653;28;20443;-70
2023/01/03 08:40:29;;;;;;;6.40;4.43;;;6.20;99.90;;;;;;5078818;28;20540;-71
2023/01/03 08:42:58;;;;;;;7.90;4.10;;;6.20;99.90;;;;;;5079681;28;20765;-69
2023/01/03 08:45:26;;;;;;;6.10;3.90;;;6.20;99.90;;;;;;5080449;28;20544;-70
2023/01/03 08:47:56;;;;;;;8.53;4.10;;;6.30;99.90;;;;;;5080632;28;20466;-70
2023/01/03 08:50:23;;;;;;;6.83;4.37;;;6.30;99.90;;;;;;5082726;28;20457;-70
2023/01/03 08:52:50;;;;;;;9.40;4.60;;;6.30;99.90;;;;;;5081552;28;20454;-69
2023/01/03 08:55:17;;;;;;;9.30;4.60;;;6.30;99.90;;;;;;5082243;28;20519;-68
2023/01/03 08:57:44;;;;;;;7.53;4.33;;;6.40;99.90;;;;;;5081561;28;20515;-69
2023/01/03 09:00:13;;;;;;;9.80;3.97;;;6.40;99.90;;;;;;5081749;28;20458;-69
2023/01/03 09:02:40;;;;;;;6.60;4.33;;;6.40;99.90;;;;;;5081147;28;20798;-70
2023/01/03 09:05:08;;;;;;;9.63;4.83;;;6.40;99.90;;;;;;5081867;28;20761;-69
2023/01/03 09:07:35;;;;;;;7.90;4.83;;;6.50;99.90;;;;;;5082680;28;20456;-70
2023/01/03 09:10:02;;;;;;;7.40;3.97;;;6.50;99.90;;;;;;5082824;28;20465;-69
2023/01/03 09:12:29;;;;;;;5.43;3.60;;;6.50;99.90;;;;;;5081532;28;20455;-69
2023/01/03 09:14:56;;;;;;;12.60;4.40;;;6.60;99.90;;;;;;5081743;28;20474;-70
2023/01/03 09:17:24;;;;;;;7.10;4.00;;;6.60;99.90;;;;;;5082694;28;20486;-70
2023/01/03 09:19:51;;;;;;;9.03;4.50;;;6.60;99.90;;;;;;5082066;28;20458;-70
2023/01/03 09:22:18;;;;;;;6.17;4.60;;;6.60;99.90;;;;;;5082302;28;20498;-70
2023/01/03 09:24:44;;;;;;;5.90;3.77;;;6.60;99.90;;;;;;5083105;28;20458;-70
2023/01/03 09:27:11;;;;;;;5.73;3.90;;;6.60;99.90;;;;;;5083300;28;20482;-70
2023/01/03 09:29:38;;;;;;;8.47;3.80;;;6.60;99.90;;;;;;5082782;28;20461;-71
2023/01/03 09:32:05;;;;;;;6.30;3.30;;;6.60;99.90;;;;;;5082289;28;20552;-70
2023/01/03 09:34:34;;;;;;;8.70;3.90;;;6.60;99.90;;;;;;5082736;28;20455;-69
2023/01/03 09:37:03;;;;;;;8.50;3.67;;;6.60;99.90;;;;;;5081099;28;20492;-71
2023/01/03 09:39:29;;;;;;;6.80;3.73;;;6.70;99.90;;;;;;5081251;28;20806;-70
2023/01/03 09:44:45;;;;;;;6.20;3.00;;;6.70;99.90;;;;;;5035721;28;20439;-70
2023/01/03 09:47:18;;;;;;;4.53;3.20;;;6.70;99.90;;;;;;5061535;28;20443;-70
2023/01/03 09:49:47;;;;;;;4.63;3.30;;;6.70;99.90;;;;;;5062576;28;20449;-71
2023/01/03 10:03:45;;;;;;;5.90;3.30;;;6.90;99.90;;;;;;5056934;28;20454;-70
2023/01/03 10:06:25;;;;;;;4.07;3.03;;;6.90;99.90;;;;;;5061036;28;20527;-70
2023/01/03 10:09:06;;;;;;;7.77;3.93;;;6.90;99.90;;;;;;5062135;28;20763;-70
2023/01/03 10:11:41;;;;;;;7.27;2.70;;;7.00;99.90;;;;;;5062152;28;20438;-70
2023/01/03 10:14:21;;;;;;;5.83;2.90;;;7.00;99.90;;;;;;5061669;28;20438;-71
2023/01/03 10:16:59;;;;;;;6.90;3.80;;;7.00;99.90;;;;;;5061551;28;20558;-70
2023/01/03 10:19:48;;;;;;;5.13;3.27;;;7.00;99.90;;;;;;5061550;28;20439;-70
2023/01/03 10:22:18;;;;;;;9.13;3.80;;;7.10;99.90;;;;;;5061193;28;20886;-70
2023/01/03 10:24:47;;;;;;;6.53;3.37;;;7.10;99.90;;;;;;5061660;28;20458;-70
2023/01/03 10:27:16;;;;;;;8.17;3.23;;;7.20;99.90;;;;;;5061258;28;20541;-70
2023/01/03 10:29:45;;;;;;;5.60;3.40;;;7.20;99.90;;;;;;5061676;28;20455;-70
2023/01/03 10:32:30;;;;;;;5.80;3.50;;;7.20;99.90;;;;;;5061774;28;20541;-71
2023/01/03 10:35:17;;;;;;;5.00;3.50;;;7.20;99.90;;;;;;5062090;28;20467;-71
2023/01/03 10:37:45;;;;;;;9.30;4.17;;;7.20;99.90;;;;;;5062020;28;20467;-69
2023/01/03 10:40:14;;;;;;;6.57;3.60;;;7.30;99.90;;;;;;5062932;28;20455;-70
2023/01/03 10:42:42;;;;;;;5.03;4.20;;;7.40;99.90;;;;;;5062285;28;20846;-70
2023/01/03 10:45:13;;;;;;;5.93;4.40;;;7.40;99.90;;;;;;5062938;28;20469;-70
2023/01/03 10:47:40;;;;;;;4.30;3.80;;;7.30;99.90;;;;;;5062621;28;20507;-70
2023/01/03 10:50:19;;;;;;;9.07;4.63;;;7.30;99.90;;;;;;5062792;28;20534;-70
2023/01/03 10:52:48;;;;;;;5.10;4.60;;;7.30;99.90;;;;;;5061843;28;20438;-69
2023/01/03 10:55:19;;;;;;;9.60;5.03;;;7.30;99.90;;;;;;5062639;28;20462;-71
2023/01/03 10:57:58;;;;;;;8.10;5.00;;;7.40;99.90;;;;;;5061937;28;20478;-69
2023/01/03 11:00:31;;;;;;;8.50;5.00;;;7.40;99.90;;;;;;5061514;28;20453;-71
2023/01/03 11:03:09;;;;;;;7.70;4.33;;;7.40;99.90;;;;;;5061917;28;20520;-69
2023/01/03 11:05:38;;;;;;;11.93;4.43;;;7.50;99.90;;;;;;5061390;28;20474;-70
2023/01/03 11:08:15;;;;;;;9.47;4.60;;;7.50;99.90;;;;;;5060797;28;20778;-69
2023/01/03 11:10:51;;;;;;;6.47;4.03;;;7.50;99.90;;;;;;5060701;28;20439;-69
2023/01/03 11:13:28;;;;;;;7.03;4.63;;;7.50;99.90;;;;;;5061889;28;20447;-70
2023/01/03 11:15:56;;;;;;;8.90;5.40;;;7.60;99.90;;;;;;5060715;28;20441;-69
2023/01/03 11:18:26;;;;;;;6.80;4.30;;;7.60;99.90;;;;;;5061133;28;20487;-70
2023/01/03 11:21:05;;;;;;;13.53;5.73;;;7.60;99.90;;;;;;5061327;28;20854;-70
2023/01/03 11:23:47;;;;;;;7.60;5.50;;;7.60;99.90;;;;;;5062256;28;20508;-70
2023/01/03 11:26:25;;;;;;;10.13;5.13;;;7.60;99.90;;;;;;5062465;28;20496;-69
2023/01/03 11:29:08;;;;;;;8.50;4.83;;;7.60;99.90;;;;;;5062538;28;20439;-70
2023/01/03 11:31:44;;;;;;;9.00;5.47;;;7.70;99.90;;;;;;5061366;28;20439;-69
2023/01/03 11:34:29;;;;;;;6.90;5.00;;;7.70;99.90;;;;;;5061324;28;20617;-69
2023/01/03 11:37:01;;;;;;;9.30;4.87;;;7.70;99.90;;;;;;5062320;28;20531;-70
2023/01/03 11:39:49;;;;;;;7.37;4.63;;;7.70;99.90;;;;;;5061494;28;20467;-69
2023/01/03 11:42:31;;;;;;;5.60;4.80;;;7.60;99.90;;;;;;5061163;28;20435;-70
2023/01/03 11:45:26;;;;;;;8.50;5.50;;;7.50;99.90;;;;;;5061244;28;20444;-71
2023/01/03 11:48:05;;;;;;;15.93;5.57;;;7.40;99.90;;;;;;5060992;28;20482;-70
2023/01/03 11:50:45;;;;;;;11.30;5.90;;;7.30;99.90;;;;;;5061099;28;20812;-71
2023/01/03 11:53:23;;;;;;;10.23;4.93;;;7.30;99.90;;;;;;5061746;28;20776;-70
2023/01/03 11:56:07;;;;;;;7.43;4.23;;;7.30;99.90;;;;;;5061656;28;20443;-69
2023/01/03 11:58:54;;;;;;;7.03;4.30;;;7.30;99.90;;;;;;5061571;28;20459;-69
2023/01/03 12:01:35;;;;;;;7.47;4.63;;;7.30;99.90;;;;;;5062187;28;20443;-71
2023/01/03 12:04:19;;;;;;;6.20;4.57;;;7.40;99.90;;;;;;5062323;28;20514;-69
2023/01/03 12:06:51;;;;;;;7.73;5.27;;;7.40;99.90;;;;;;5061940;28;20435;-69
2023/01/03 12:09:24;;;;;;;10.63;4.40;;;7.50;99.90;;;;;;5061982;28;20522;-71
2023/01/03 12:12:22;;;;;;;7.20;3.90;;;7.70;99.90;;;;;;5061722;28;20530;-70
2023/01/03 12:14:55;;;;;;;6.30;3.80;;;8.20;99.90;;;;;;5056203;28;20792;-69
2023/01/03 12:17:29;;;;;;;7.03;3.60;;;8.40;99.90;;;;;;5055765;28;20478;-69
2023/01/03 12:19:59;;;;;;;9.20;3.90;;;8.60;99.90;;;;;;5058441;28;20551;-68
2023/01/03 12:22:33;;;;;;;6.80;3.60;;;8.70;99.90;;;;;;5057416;28;20496;-68
2023/01/03 12:25:08;;;;;;;7.73;3.87;;;9.00;99.90;;;;;;5057528;28;20868;-68
2023/01/03 12:27:42;;;;;;;3.90;3.27;;;9.30;99.90;;;;;;5057851;28;20449;-69
2023/01/03 12:30:37;;;;;;;7.20;3.60;;;9.20;99.90;;;;;;5057533;28;20443;-68
2023/01/03 12:33:16;;;;;;;5.47;3.03;;;8.90;99.90;;;;;;5057933;28;20443;-68
2023/01/03 12:35:47;;;;;;;6.00;2.60;;;8.60;99.90;;;;;;5057666;28;20439;-70
2023/01/03 12:38:18;;;;;;;6.80;3.37;;;8.30;99.90;;;;;;5057848;28;20497;-68
2023/01/03 12:40:51;;;;;;;4.77;2.90;;;8.10;99.90;;;;;;5057622;28;20778;-69
2023/01/03 12:43:25;;;;;;;7.87;3.50;;;8.00;99.90;;;;;;5058195;28;20453;-69
2023/01/03 12:45:58;;;;;;;5.93;2.57;;;7.80;99.90;;;;;;5057432;28;20776;-70
2023/01/03 12:48:38;;;;;;;6.13;3.80;;;7.70;99.90;;;;;;5057569;28;20760;-69
2023/01/03 12:51:06;;;;;;;7.87;3.40;;;7.60;99.90;;;;;;5057749;28;20535;-68
2023/01/03 12:53:40;;;;;;;5.40;3.60;;;7.60;99.90;;;;;;5057621;28;20510;-70
2023/01/03 12:56:20;;;;;;;7.63;3.03;;;7.50;99.90;;;;;;5057760;28;20802;-68
2023/01/03 12:59:01;;;;;;;8.70;3.40;;;7.50;99.90;;;;;;5058284;28;20439;-68
2023/01/03 13:01:36;;;;;;;7.87;3.27;;;7.50;99.90;;;;;;5058148;28;20470;-69
2023/01/03 13:04:11;;;;;;;5.07;3.57;;;7.60;99.90;;;;;;5058018;28;20461;-69
2023/01/03 13:06:41;;;;;;;5.93;3.53;;;7.60;99.90;;;;;;5057837;28;20458;-68
2023/01/03 13:09:18;;;;;;;4.67;3.30;;;7.60;99.90;;;;;;5057366;28;20455;-69
2023/01/03 13:11:49;;;;;;;7.07;3.70;;;7.70;99.90;;;;;;5057561;28;20443;-68
2023/01/03 13:14:20;;;;;;;5.50;3.90;;;7.70;99.90;;;;;;5057274;28;20465;-69
2023/01/03 13:16:48;;;;;;;4.00;2.70;;;7.60;99.90;;;;;;5056935;28;20447;-69
2023/01/03 13:19:57;;;;;;;9.47;3.50;;;7.60;99.90;;;;;;5056724;28;20890;-69
2023/01/03 13:22:56;;;;;;;5.30;3.17;;;7.60;99.90;;;;;;5057179;28;20517;-69
2023/01/03 13:25:44;;;;;;;6.20;3.33;;;7.60;99.90;;;;;;5056577;28;20636;-68
2023/01/03 13:28:29;;;;;;;5.73;3.13;;;7.90;99.90;;;;;;5056621;28;20516;-69
2023/01/03 13:31:44;;;;;;;4.20;3.50;;;8.80;99.90;;;;;;5056585;28;20897;-69
2023/01/03 13:34:16;;;;;;;4.60;3.50;;;9.70;99.90;;;;;;5056641;28;20526;-68
2023/01/03 13:37:18;;;;;;;6.43;3.33;;;10.30;99.90;;;;;;5057041;28;20435;-68
2023/01/03 13:40:11;;;;;;;5.83;3.40;;;10.20;99.90;;;;;;5056618;28;20458;-68
2023/01/03 13:42:39;;;;;;;3.00;2.70;;;10.00;99.90;;;;;;5056717;28;20451;-69
2023/01/03 13:45:55;;;;;;;6.40;3.77;;;9.50;99.90;;;;;;5057119;28;20546;-69
2023/01/03 13:48:33;;;;;;;8.30;4.10;;;9.10;99.90;;;;;;5056484;28;20872;-68
2023/01/03 13:51:27;;;;;;;4.23;3.10;;;8.80;99.90;;;;;;5056453;28;20439;-70
2023/01/03 13:53:58;;;;;;;6.70;3.27;;;8.50;99.90;;;;;;5056525;28;20450;-68
2023/01/03 13:56:27;;;;;;;3.40;3.00;;;8.30;99.90;;;;;;5056098;28;20446;-69
2023/01/03 13:58:59;;;;;;;4.47;3.17;;;8.10;99.90;;;;;;5056048;28;20586;-68
2023/01/03 14:01:40;;;;;;;5.23;3.10;;;8.10;99.90;;;;;;5057137;28;20946;-68
2023/01/03 14:04:35;;;;;;;4.93;2.63;;;8.00;99.90;;;;;;5076758;28;20454;-69
2023/01/03 14:07:38;;;;;;;8.50;3.77;;;7.90;99.90;;;;;;5076402;28;20443;-69
2023/01/03 14:10:20;;;;;;;6.70;3.73;;;7.90;99.90;;;;;;5053244;28;20454;-69
2023/01/03 14:13:10;;;;;;;5.07;2.90;;;7.90;99.90;;;;;;5056113;28;20443;-68
2023/01/03 14:15:37;;;;;;;8.53;3.63;;;7.90;99.90;;;;;;5055678;28;20444;-70
2023/01/03 14:18:18;;;;;;;4.80;3.07;;;7.90;99.90;;;;;;5055739;28;20483;-68
2023/01/03 14:20:49;;;;;;;4.00;3.23;;;8.10;99.90;;;;;;5056402;28;20533;-68
2023/01/03 14:23:18;;;;;;;5.03;3.60;;;8.50;99.90;;;;;;5055278;28;20483;-68
2023/01/03 14:25:46;;;;;;;10.20;4.40;;;9.00;99.90;;;;;;5055789;28;20553;-68